createdAt,value
2018-04-24T00:00:17.940Z,71.60
2018-04-24T00:02:46.882Z,70.80
2018-04-24T00:05:16.623Z,71.60
2018-04-24T00:07:45.505Z,71.60
2018-04-24T00:10:14.417Z,71.90
2018-04-24T00:12:43.326Z,72.80
2018-04-24T00:15:12.325Z,73.30
2018-04-24T00:17:41.249Z,73.40
2018-04-24T00:20:10.942Z,73.90
2018-04-24T00:22:39.860Z,73.80
2018-04-24T00:25:08.743Z,73.50
2018-04-24T00:27:38.388Z,74.60
2018-04-24T00:30:07.358Z,74.50
2018-04-24T00:32:36.265Z,73.90
2018-04-24T00:35:05.147Z,74.10
2018-04-24T00:37:35.168Z,73.60
2018-04-24T00:40:06.414Z,74.10
2018-04-24T00:42:35.305Z,74.50
2018-04-24T00:45:04.225Z,75.30
2018-04-24T00:47:33.122Z,75.10
2018-04-24T00:50:02.074Z,75.60
2018-04-24T00:52:30.972Z,75.90
2018-04-24T00:54:59.873Z,76.30
2018-04-24T00:57:28.845Z,76.50
2018-04-24T00:59:57.794Z,76.00
2018-04-24T01:02:26.673Z,75.60
2018-04-24T01:04:55.616Z,75.90
2018-04-24T01:07:24.634Z,75.90
2018-04-24T01:09:53.528Z,76.10
2018-04-24T01:12:22.494Z,75.90
2018-04-24T01:14:51.371Z,76.40
2018-04-24T01:17:20.251Z,76.60
2018-04-24T01:19:49.228Z,77.00
2018-04-24T01:22:18.880Z,77.50
2018-04-24T01:24:47.758Z,77.40
2018-04-24T01:27:16.658Z,77.70
2018-04-24T01:29:45.521Z,77.80
2018-04-24T01:32:14.452Z,77.30
2018-04-24T01:34:43.398Z,77.00
2018-04-24T01:37:13.031Z,76.70
2018-04-24T01:39:41.924Z,76.70
2018-04-24T01:42:10.800Z,77.20
2018-04-24T01:44:39.696Z,77.60
2018-04-24T01:47:08.617Z,77.60
2018-04-24T01:49:37.621Z,78.00
2018-04-24T01:52:06.539Z,78.20
2018-04-24T01:54:35.510Z,78.40
2018-04-24T01:57:04.494Z,78.90
2018-04-24T01:59:33.426Z,79.00
2018-04-24T02:02:03.072Z,79.70
2018-04-24T02:04:32.005Z,79.50
2018-04-24T02:07:00.872Z,79.40
2018-04-24T02:09:29.856Z,79.70
2018-04-24T02:11:58.800Z,79.70
2018-04-24T02:14:28.442Z,80.20
2018-04-24T02:16:58.108Z,79.70
2018-04-24T02:19:27.767Z,79.50
2018-04-24T02:21:56.667Z,79.40
2018-04-24T02:24:25.654Z,79.90
2018-04-24T02:26:54.533Z,79.90
2018-04-24T02:29:23.426Z,79.80
2018-04-24T02:31:52.375Z,80.50
2018-04-24T02:34:21.298Z,81.00
2018-04-24T02:36:50.259Z,81.00
2018-04-24T02:39:19.190Z,80.80
2018-04-24T02:41:48.049Z,81.40
2018-04-24T02:44:16.981Z,81.30
2018-04-24T02:46:45.916Z,81.40
2018-04-24T02:49:14.795Z,81.60
2018-04-24T02:51:43.698Z,81.70
2018-04-24T02:54:13.385Z,81.60
2018-04-24T02:56:42.298Z,81.50
2018-04-24T02:59:11.954Z,81.30
2018-04-24T03:01:40.869Z,81.30
2018-04-24T03:04:09.832Z,81.70
2018-04-24T03:06:38.699Z,82.00
2018-04-24T03:09:07.616Z,82.30
2018-04-24T03:11:36.566Z,82.20
2018-04-24T03:14:06.230Z,82.10
2018-04-24T03:16:35.194Z,82.10
2018-04-24T03:19:04.092Z,82.20
2018-04-24T03:21:32.981Z,81.80
2018-04-24T03:24:01.953Z,81.80
2018-04-24T03:26:30.820Z,81.70
2018-04-24T03:29:00.495Z,82.50
2018-04-24T03:31:29.479Z,82.40
2018-04-24T03:33:58.350Z,82.30
2018-04-24T03:36:27.243Z,82.60
2018-04-24T03:38:56.129Z,82.90
2018-04-24T03:41:25.030Z,83.00
2018-04-24T03:43:53.929Z,82.70
2018-04-24T03:46:22.926Z,81.90
2018-04-24T03:48:51.831Z,82.20
2018-04-24T03:51:20.710Z,82.50
2018-04-24T03:53:49.653Z,82.90
2018-04-24T03:56:18.530Z,82.80
2018-04-24T03:58:48.182Z,82.90
2018-04-24T04:01:17.121Z,82.80
2018-04-24T04:03:46.055Z,83.10
2018-04-24T04:06:14.944Z,82.90
2018-04-24T04:08:43.882Z,83.20
2018-04-24T04:11:12.838Z,83.10
2018-04-24T04:13:41.790Z,83.20
2018-04-24T04:16:11.469Z,82.70
2018-04-24T04:18:58.224Z,82.70
2018-04-24T04:21:44.921Z,82.90
2018-04-24T04:24:30.117Z,83.40
2018-04-24T04:26:59.078Z,83.30
2018-04-24T04:29:28.746Z,83.20
2018-04-24T04:31:57.636Z,83.20
2018-04-24T04:34:26.621Z,83.10
2018-04-24T04:36:55.513Z,82.80
2018-04-24T04:39:24.410Z,82.40
2018-04-24T04:41:53.316Z,82.00
2018-04-24T04:44:22.276Z,81.40
2018-04-24T04:46:51.156Z,81.30
2018-04-24T04:49:20.027Z,81.40
2018-04-24T04:51:48.962Z,81.30
2018-04-24T04:54:17.856Z,80.70
2018-04-24T04:57:01.432Z,80.60
2018-04-24T04:59:31.110Z,79.30
2018-04-24T05:02:00.076Z,79.20
2018-04-24T05:04:29.023Z,78.60
2018-04-24T05:06:58.050Z,76.20
2018-04-24T05:09:26.929Z,73.40
2018-04-24T05:11:55.823Z,70.60
2018-04-24T05:14:24.767Z,67.40
2018-04-24T05:16:53.769Z,64.80
2018-04-24T05:19:22.679Z,64.30
2018-04-24T05:21:51.660Z,65.20
2018-04-24T05:24:21.353Z,66.80
2018-04-24T05:26:50.312Z,66.70
2018-04-24T05:29:19.249Z,68.20
2018-04-24T05:31:48.909Z,71.90
2018-04-24T05:34:17.894Z,71.80
2018-04-24T05:36:46.825Z,73.70
2018-04-24T05:39:15.798Z,75.30
2018-04-24T05:41:44.733Z,74.00
2018-04-24T05:44:14.432Z,65.70
2018-04-24T05:46:44.132Z,64.30
2018-04-24T05:49:13.020Z,64.20
2018-04-24T05:51:41.976Z,63.30
2018-04-24T05:54:10.934Z,61.20
2018-04-24T05:56:39.821Z,58.50
2018-04-24T05:59:08.718Z,54.80
2018-04-24T06:01:38.420Z,51.90
2018-04-24T06:04:07.427Z,50.10
2018-04-24T06:06:36.321Z,47.60
2018-04-24T06:09:06.129Z,45.00
2018-04-24T06:11:35.042Z,43.00
2018-04-24T06:14:03.992Z,42.10
2018-04-24T06:16:33.786Z,41.20
2018-04-24T06:19:03.419Z,41.40
2018-04-24T06:21:32.420Z,41.40
2018-04-24T06:24:01.281Z,40.40
2018-04-24T06:26:30.136Z,39.90
2018-04-24T06:28:59.054Z,39.10
2018-04-24T06:31:27.978Z,38.60
2018-04-24T06:33:56.899Z,38.20
2018-04-24T06:36:25.789Z,37.70
2018-04-24T06:38:54.668Z,36.20
2018-04-24T06:41:23.551Z,35.50
2018-04-24T06:43:52.553Z,35.20
2018-04-24T06:46:21.477Z,34.30
2018-04-24T06:48:50.372Z,33.00
2018-04-24T06:51:19.256Z,33.20
2018-04-24T06:53:48.169Z,34.90
2018-04-24T06:56:17.066Z,35.80
2018-04-24T06:58:45.962Z,36.00
2018-04-24T07:01:14.858Z,35.60
2018-04-24T07:03:43.712Z,34.10
2018-04-24T07:06:12.584Z,32.10
2018-04-24T07:08:41.459Z,31.40
2018-04-24T07:11:10.362Z,30.80
2018-04-24T07:13:39.253Z,30.90
2018-04-24T07:16:08.213Z,30.80
2018-04-24T07:18:37.206Z,30.50
2018-04-24T07:21:06.099Z,31.30
2018-04-24T07:23:35.047Z,30.40
2018-04-24T07:26:03.893Z,30.60
2018-04-24T07:28:32.814Z,28.50
2018-04-24T07:31:01.688Z,28.90
2018-04-24T07:33:30.610Z,28.50
2018-04-24T07:35:59.493Z,27.60
2018-04-24T07:38:28.429Z,27.70
2018-04-24T07:40:57.289Z,27.90
2018-04-24T07:43:26.920Z,27.30
2018-04-24T07:45:55.806Z,27.30
2018-04-24T07:48:24.681Z,26.30
2018-04-24T07:50:53.669Z,26.80
2018-04-24T07:53:22.631Z,28.40
2018-04-24T07:55:51.540Z,28.10
2018-04-24T07:58:20.498Z,27.80
2018-04-24T08:00:49.399Z,28.10
2018-04-24T08:03:18.308Z,27.40
2018-04-24T08:05:47.191Z,26.30
2018-04-24T08:08:16.066Z,24.60
2018-04-24T08:10:46.212Z,25.50
2018-04-24T08:13:15.117Z,25.90
2018-04-24T08:15:44.764Z,25.90
2018-04-24T08:18:13.677Z,25.90
2018-04-24T08:20:42.640Z,26.00
2018-04-24T08:23:11.524Z,26.00
2018-04-24T08:25:40.410Z,26.70
2018-04-24T08:28:09.295Z,26.30
2018-04-24T08:30:38.245Z,25.60
2018-04-24T08:33:07.120Z,26.30
2018-04-24T08:35:35.997Z,26.50
2018-04-24T08:38:04.918Z,25.60
2018-04-24T08:40:33.776Z,26.40
2018-04-24T08:43:02.669Z,26.90
2018-04-24T08:45:31.561Z,28.30
2018-04-24T08:48:00.523Z,29.40
2018-04-24T08:50:29.410Z,30.00
2018-04-24T08:52:58.296Z,33.00
2018-04-24T08:55:27.218Z,32.50
2018-04-24T08:57:56.116Z,33.50
2018-04-24T09:00:25.098Z,36.20
2018-04-24T09:02:54.084Z,36.00
2018-04-24T09:05:22.989Z,37.00
2018-04-24T09:07:52.060Z,37.20
2018-04-24T09:10:20.975Z,37.20
2018-04-24T09:12:49.853Z,38.60
2018-04-24T09:15:18.781Z,40.30
2018-04-24T09:17:47.716Z,41.10
2018-04-24T09:20:16.606Z,41.60
2018-04-24T09:22:45.583Z,43.20
2018-04-24T09:25:15.216Z,41.70
2018-04-24T09:27:44.159Z,41.60
2018-04-24T09:30:13.101Z,41.80
2018-04-24T09:32:41.999Z,41.30
2018-04-24T09:35:10.972Z,36.30
2018-04-24T09:37:39.869Z,34.80
2018-04-24T09:40:08.769Z,34.20
2018-04-24T09:42:37.658Z,34.60
2018-04-24T09:45:07.402Z,33.00
2018-04-24T09:47:36.255Z,32.90
2018-04-24T09:50:05.148Z,34.30
2018-04-24T09:52:34.037Z,32.00
2018-04-24T09:55:03.726Z,35.90
2018-04-24T09:57:32.589Z,35.80
2018-04-24T10:00:02.314Z,36.40
2018-04-24T10:02:31.988Z,34.50
2018-04-24T10:05:00.868Z,34.40
2018-04-24T10:07:29.962Z,34.30
2018-04-24T10:09:58.870Z,35.00
2018-04-24T10:12:27.846Z,36.70
2018-04-24T10:14:56.738Z,36.10
2018-04-24T10:17:25.635Z,37.10
2018-04-24T10:19:54.546Z,38.60
2018-04-24T10:22:24.212Z,37.70
2018-04-24T10:24:53.144Z,37.70
2018-04-24T10:27:22.792Z,32.50
2018-04-24T10:29:51.697Z,32.50
2018-04-24T10:32:20.570Z,33.90
2018-04-24T10:34:49.440Z,36.50
2018-04-24T10:37:18.330Z,33.50
2018-04-24T10:39:47.190Z,32.20
2018-04-24T10:42:16.131Z,30.40
2018-04-24T10:44:45.093Z,30.40
2018-04-24T10:47:14.733Z,33.00
2018-04-24T10:49:43.589Z,32.90
2018-04-24T10:52:14.101Z,30.70
2018-04-24T10:54:43.007Z,30.70
2018-04-24T10:57:12.122Z,31.30
2018-04-24T10:59:41.791Z,29.70
2018-04-24T11:02:10.660Z,29.60
2018-04-24T11:04:39.528Z,30.20
2018-04-24T11:07:08.440Z,31.80
2018-04-24T11:09:37.426Z,31.90
2018-04-24T11:12:06.323Z,32.80
2018-04-24T11:14:35.443Z,33.70
2018-04-24T11:17:04.377Z,32.80
2018-04-24T11:19:33.980Z,32.70
2018-04-24T11:22:02.888Z,32.60
2018-04-24T11:24:31.857Z,32.30
2018-04-24T11:27:09.340Z,34.60
2018-04-24T11:29:38.377Z,34.50
2018-04-24T11:32:08.284Z,35.40
2018-04-24T11:34:37.178Z,33.60
2018-04-24T11:37:06.040Z,32.10
2018-04-24T11:39:34.994Z,33.20
2018-04-24T11:42:03.927Z,31.10
2018-04-24T11:44:32.797Z,31.60
2018-04-24T11:47:03.316Z,29.70
2018-04-24T11:49:32.287Z,29.70
2018-04-24T11:52:01.174Z,30.50
2018-04-24T11:54:30.075Z,29.90
2018-04-24T11:57:03.707Z,30.40
2018-04-24T11:59:32.536Z,31.80
2018-04-24T12:02:01.437Z,31.70
2018-04-24T12:04:30.433Z,29.80
2018-04-24T12:07:00.560Z,31.20
2018-04-24T12:09:29.449Z,31.10
2018-04-24T12:11:58.346Z,30.50
2018-04-24T12:14:27.242Z,30.30
2018-04-24T12:16:56.897Z,31.00
2018-04-24T12:19:39.467Z,31.90
2018-04-24T12:22:08.320Z,31.90
2018-04-24T12:24:37.279Z,30.50
2018-04-24T12:27:06.405Z,30.00
2018-04-24T12:29:35.313Z,31.70
2018-04-24T12:32:04.237Z,31.40
2018-04-24T12:34:33.922Z,31.10
2018-04-24T12:37:02.812Z,31.10
2018-04-24T12:39:31.751Z,30.00
2018-04-24T12:42:00.626Z,30.10
2018-04-24T12:44:29.534Z,31.60
2018-04-24T12:46:58.440Z,30.10
2018-04-24T12:49:27.391Z,30.30
2018-04-24T12:51:57.074Z,32.50
2018-04-24T12:54:26.006Z,32.50
2018-04-24T12:56:54.910Z,31.50
2018-04-24T12:59:23.823Z,30.50
2018-04-24T13:01:52.791Z,31.80
2018-04-24T13:04:21.710Z,30.90
2018-04-24T13:06:51.209Z,30.00
2018-04-24T13:09:21.693Z,31.20
2018-04-24T13:11:50.641Z,30.80
2018-04-24T13:14:20.532Z,32.90
2018-04-24T13:16:49.411Z,32.30
2018-04-24T13:19:20.769Z,30.90
2018-04-24T13:21:49.707Z,30.30
2018-04-24T13:24:18.576Z,29.90
2018-04-24T13:26:47.504Z,31.90
2018-04-24T13:29:17.339Z,30.90
2018-04-24T13:31:46.265Z,30.80
2018-04-24T13:34:15.180Z,31.50
2018-04-24T13:36:44.091Z,33.10
2018-04-24T13:39:13.017Z,32.20
2018-04-24T13:41:42.000Z,32.20
2018-04-24T13:44:10.890Z,32.50
2018-04-24T13:46:39.804Z,32.00
2018-04-24T13:49:08.730Z,32.50
2018-04-24T13:51:37.648Z,31.20
2018-04-24T13:54:06.545Z,31.70
2018-04-24T13:56:35.459Z,30.80
2018-04-24T13:59:04.382Z,31.60
2018-04-24T14:01:34.840Z,32.80
2018-04-24T14:04:03.754Z,32.70
2018-04-24T14:06:32.683Z,32.40
2018-04-24T14:09:01.585Z,32.00
2018-04-24T14:11:30.472Z,32.40
2018-04-24T14:13:59.448Z,33.50
2018-04-24T14:16:28.431Z,34.30
2018-04-24T14:18:57.318Z,33.10
2018-04-24T14:21:26.272Z,32.10
2018-04-24T14:23:55.092Z,33.10
2018-04-24T14:26:23.981Z,33.30
2018-04-24T14:28:52.930Z,33.30
2018-04-24T14:31:22.606Z,35.30
2018-04-24T14:33:51.500Z,34.50
2018-04-24T14:36:20.444Z,32.40
2018-04-24T14:38:49.320Z,33.70
2018-04-24T14:41:18.235Z,33.70
2018-04-24T14:43:47.136Z,32.30
2018-04-24T14:46:16.046Z,33.90
2018-04-24T14:48:46.908Z,33.80
2018-04-24T14:51:16.648Z,34.30
2018-04-24T14:53:45.527Z,34.10
2018-04-24T14:56:15.169Z,35.10
2018-04-24T14:58:44.137Z,35.00
2018-04-24T15:01:13.067Z,33.70
2018-04-24T15:03:42.003Z,33.20
2018-04-24T15:06:11.697Z,33.30
2018-04-24T15:08:40.800Z,33.30
2018-04-24T15:11:09.681Z,33.70
2018-04-24T15:13:38.962Z,33.70
2018-04-24T15:16:07.851Z,34.20
2018-04-24T15:18:36.727Z,33.90
2018-04-24T15:21:05.608Z,34.30
2018-04-24T15:23:34.538Z,33.50
2018-04-24T15:26:03.462Z,34.00
2018-04-24T15:28:32.337Z,34.30
2018-04-24T15:31:02.039Z,34.20
2018-04-24T15:33:31.755Z,34.30
2018-04-24T15:36:01.496Z,34.60
2018-04-24T15:38:30.368Z,34.60
2018-04-24T15:40:59.273Z,34.50
2018-04-24T15:43:28.153Z,34.10
2018-04-24T15:45:57.053Z,34.10
2018-04-24T15:48:25.923Z,34.40
2018-04-24T15:50:54.851Z,35.20
2018-04-24T15:53:23.708Z,35.20
2018-04-24T15:55:52.631Z,35.70
2018-04-24T15:58:21.551Z,35.40
2018-04-24T16:00:50.448Z,35.20
2018-04-24T16:03:19.308Z,35.30
2018-04-24T16:05:48.223Z,35.80
2018-04-24T16:08:17.145Z,35.50
2018-04-24T16:10:46.828Z,35.50
2018-04-24T16:13:15.733Z,35.50
2018-04-24T16:15:45.352Z,34.40
2018-04-24T16:18:14.276Z,34.40
2018-04-24T16:20:43.218Z,35.50
2018-04-24T16:23:13.361Z,35.90
2018-04-24T16:25:42.321Z,36.00
2018-04-24T16:28:11.237Z,36.30
2018-04-24T16:30:40.100Z,36.80
2018-04-24T16:33:09.018Z,36.40
2018-04-24T16:35:38.791Z,37.20
2018-04-24T16:38:07.700Z,37.10
2018-04-24T16:40:37.366Z,37.30
2018-04-24T16:43:06.394Z,37.20
2018-04-24T16:45:35.260Z,37.60
2018-04-24T16:48:04.170Z,38.40
2018-04-24T16:50:33.122Z,39.00
2018-04-24T16:53:02.075Z,38.90
2018-04-24T16:55:31.715Z,38.70
2018-04-24T16:58:00.696Z,38.60
2018-04-24T17:00:29.572Z,39.10
2018-04-24T17:02:58.499Z,40.10
2018-04-24T17:05:27.434Z,39.60
2018-04-24T17:07:57.102Z,40.30
2018-04-24T17:10:25.992Z,40.30
2018-04-24T17:12:54.900Z,40.30
2018-04-24T17:15:23.801Z,40.60
2018-04-24T17:17:52.782Z,41.10
2018-04-24T17:20:21.689Z,41.00
2018-04-24T17:22:50.643Z,41.60
2018-04-24T17:25:20.275Z,41.90
2018-04-24T17:27:49.898Z,42.50
2018-04-24T17:30:19.577Z,43.30
2018-04-24T17:32:48.502Z,43.30
2018-04-24T17:35:17.371Z,43.80
2018-04-24T17:37:46.330Z,44.00
2018-04-24T17:40:15.200Z,44.10
2018-04-24T17:42:44.176Z,44.30
2018-04-24T17:45:13.085Z,44.40
2018-04-24T17:47:42.787Z,45.20
2018-04-24T17:50:11.752Z,45.20
2018-04-24T17:52:40.697Z,45.30
2018-04-24T17:55:09.613Z,45.50
2018-04-24T17:57:38.500Z,45.40
2018-04-24T18:00:07.400Z,45.90
2018-04-24T18:02:36.322Z,47.00
2018-04-24T18:05:06.307Z,47.90
2018-04-24T18:07:35.247Z,47.90
2018-04-24T18:10:04.137Z,47.70
2018-04-24T18:12:33.828Z,47.80
2018-04-24T18:15:02.733Z,47.70
2018-04-24T18:17:36.676Z,47.40
2018-04-24T18:20:05.553Z,47.50
2018-04-24T18:22:34.462Z,47.50
2018-04-24T18:25:03.676Z,48.50
2018-04-24T18:27:32.990Z,48.70
2018-04-24T18:30:02.690Z,50.30
2018-04-24T18:32:31.591Z,50.20
2018-04-24T18:35:00.540Z,50.30
2018-04-24T18:37:29.425Z,49.70
2018-04-24T18:39:59.434Z,49.30
2018-04-24T18:42:28.449Z,49.30
2018-04-24T18:44:57.323Z,49.10
2018-04-24T18:47:27.094Z,49.40
2018-04-24T18:49:55.959Z,49.30
2018-04-24T18:52:24.874Z,50.40
2018-04-24T18:54:54.095Z,51.00
2018-04-24T18:57:23.003Z,51.10
2018-04-24T18:59:51.907Z,51.50
2018-04-24T19:02:20.871Z,52.20
2018-04-24T19:04:49.771Z,52.40
2018-04-24T19:07:18.670Z,52.00
2018-04-24T19:09:47.568Z,53.10
2018-04-24T19:12:16.482Z,53.30
2018-04-24T19:14:45.360Z,54.10
2018-04-24T19:17:14.294Z,54.00
2018-04-24T19:19:43.197Z,54.40
2018-04-24T19:22:12.107Z,54.50
2018-04-24T19:24:46.556Z,54.50
2018-04-24T19:27:15.441Z,54.70
2018-04-24T19:29:44.304Z,54.90
2018-04-24T19:32:18.710Z,55.20
2018-04-24T19:34:47.643Z,54.60
2018-04-24T19:37:16.560Z,53.00
2018-04-24T19:39:52.090Z,52.90
2018-04-24T19:42:21.150Z,53.30
2018-04-24T19:44:50.075Z,53.30
2018-04-24T19:47:19.023Z,53.70
2018-04-24T19:49:58.255Z,53.80
2018-04-24T19:52:27.216Z,54.10
2018-04-24T19:55:01.598Z,53.80
2018-04-24T19:57:30.488Z,53.90
2018-04-24T19:59:59.383Z,54.40
2018-04-24T20:02:28.339Z,54.40
2018-04-24T20:04:57.254Z,54.50
2018-04-24T20:07:26.133Z,54.80
2018-04-24T20:09:55.084Z,55.30
2018-04-24T20:12:24.725Z,55.70
2018-04-24T20:14:53.633Z,55.60
2018-04-24T20:17:22.622Z,55.40
2018-04-24T20:19:51.504Z,55.70
2018-04-24T20:22:21.440Z,56.20
2018-04-24T20:24:50.320Z,56.60
2018-04-24T20:27:19.264Z,57.20
2018-04-24T20:29:48.914Z,57.70
2018-04-24T20:32:17.853Z,57.70
2018-04-24T20:34:47.581Z,57.80
2018-04-24T20:37:17.282Z,57.70
2018-04-24T20:39:46.938Z,57.90
2018-04-24T20:42:15.854Z,57.90
2018-04-24T20:44:44.847Z,58.00
2018-04-24T20:47:13.751Z,58.30
2018-04-24T20:49:42.690Z,58.50
2018-04-24T20:52:11.630Z,58.40
2018-04-24T20:54:40.571Z,58.70
2018-04-24T20:57:09.433Z,59.20
2018-04-24T20:59:38.400Z,58.90
2018-04-24T21:02:07.328Z,59.30
2018-04-24T21:04:36.258Z,59.20
2018-04-24T21:07:05.137Z,59.20
2018-04-24T21:09:34.043Z,59.10
2018-04-24T21:12:02.918Z,59.40
2018-04-24T21:14:31.837Z,59.70
2018-04-24T21:17:00.802Z,60.20
2018-04-24T21:19:29.748Z,60.20
2018-04-24T21:21:58.698Z,60.30
2018-04-24T21:24:27.647Z,60.50
2018-04-24T21:26:56.555Z,61.20
2018-04-24T21:29:25.479Z,61.70
2018-04-24T21:31:54.382Z,62.20
2018-04-24T21:34:23.279Z,62.40
2018-04-24T21:36:52.220Z,62.40
2018-04-24T21:39:21.109Z,62.70
2018-04-24T21:41:49.980Z,62.70
2018-04-24T21:44:18.901Z,63.10
2018-04-24T21:46:47.854Z,63.30
2018-04-24T21:49:17.501Z,63.40
2018-04-24T21:51:46.392Z,63.40
2018-04-24T21:54:15.302Z,64.00
2018-04-24T21:56:44.218Z,64.40
2018-04-24T21:59:13.132Z,64.60
2018-04-24T22:01:42.074Z,64.60
2018-04-24T22:04:10.951Z,64.40
2018-04-24T22:06:39.942Z,64.60
2018-04-24T22:09:08.800Z,65.00
2018-04-24T22:11:37.688Z,65.00
2018-04-24T22:14:06.613Z,65.40
2018-04-24T22:16:35.561Z,65.90
2018-04-24T22:19:04.491Z,66.20
2018-04-24T22:21:33.484Z,66.70
2018-04-24T22:24:02.411Z,66.60
2018-04-24T22:26:32.075Z,67.00
2018-04-24T22:29:00.956Z,66.90
2018-04-24T22:31:29.895Z,66.50
2018-04-24T22:33:58.784Z,66.70
2018-04-24T22:36:27.696Z,66.70
2018-04-24T22:38:56.647Z,67.10
2018-04-24T22:41:25.537Z,67.30
2018-04-24T22:43:54.468Z,67.30
2018-04-24T22:46:24.101Z,68.50
2018-04-24T22:48:53.213Z,68.00
2018-04-24T22:51:22.142Z,68.50
2018-04-24T22:53:51.021Z,68.40
2018-04-24T22:56:19.888Z,68.30
2018-04-24T22:58:49.052Z,68.30
2018-04-24T23:01:18.726Z,68.20
2018-04-24T23:03:47.638Z,68.10
2018-04-24T23:06:17.327Z,68.80
2018-04-24T23:08:46.233Z,68.70
2018-04-24T23:11:32.909Z,69.00
2018-04-24T23:14:19.647Z,68.70
2018-04-24T23:17:06.410Z,68.30
2018-04-24T23:19:53.105Z,67.80
2018-04-24T23:22:29.956Z,68.30
2018-04-24T23:24:58.871Z,68.70
2018-04-24T23:27:27.770Z,68.60
2018-04-24T23:29:56.692Z,68.70
2018-04-24T23:32:25.650Z,68.90
2018-04-24T23:34:54.637Z,69.40
2018-04-24T23:37:23.517Z,69.50
2018-04-24T23:39:52.408Z,70.30
2018-04-24T23:42:21.304Z,69.50
2018-04-24T23:44:50.200Z,69.70
2018-04-24T23:47:19.085Z,69.90
2018-04-24T23:49:48.001Z,69.60
2018-04-24T23:52:16.936Z,69.40
2018-04-24T23:54:46.715Z,71.10
2018-04-24T23:57:16.398Z,71.70
2018-04-24T23:59:45.284Z,71.70
